Hovedside
METAR-TAF:

METAR-TAF

Lufthavner :

Lakselv lufthavn. Banak

Lakselv, Norge

breddegrad: 70-04N, lengdegrad: 024-59E, høyde over havet: 0 m

Gjeldene værobservasjon

Denne rapporten ble laget for 36 minutter siden, klokken 10:20 UTC
Vind 17 kt fra Sørvest
Temperatur 12°C
Luftfuktighet 62%
Trykk 984 hPa
Sikt 10 km eller mer
Få skyer i en høyde av 4000 ft
Brutte skyer i en høyde av 9000 ft

METAR: ENNA 211020Z 23017KT 9999 FEW040 BKN090 12/05 Q0984 RMK WIND 1800FT 24025KT

Tid: 12:56 (10:56 UTC)

Varsel

Varsel gyldig fra 21. klokken 06 UTC til 22. klokken 06 UTC
Vind 12 kt fra Sør
Sikt 10 km eller mer
Få skyer i en høyde av 3000 ft
Spredte skyer i en høyde av 5000 ft
Midlertidig
fra 21. klokken 06 UTC til 21. klokken 24 UTC
Vind 20 kt fra Sørvest med vindkast opp mot 30 kt

TAF: ENNA 2106/2206 17012KT 9999 FEW030 SCT050 TEMPO 2106/2124 22020G30KT

Værobservasjoner og værvarsel for over 4000 flyplasser (METAR- og TAF-rapporter).

Tilgjengelige stasjoner er representert av de røde og gule prikkene på kartet.

Hold musepekeren over prikken for å se navnet på stasjonen.

Klikk så for å se værobservasjoner og -varsler.

For å forandre kartet kan du klikke på den grønne knappen med svart kryss for å zoome inn, på den grønne knappen med strek for å zoome ut, eller på de grønne pilene for å se tilstøtende kart.


METAR-TAF: